createdAt,value
2019-01-26T00:01:42.236Z,93783.95
2019-01-26T00:04:11.568Z,93794.79
2019-01-26T00:06:41.244Z,93799.23
2019-01-26T00:09:11.386Z,93795.02
2019-01-26T00:11:40.860Z,93790.29
2019-01-26T00:14:10.434Z,93787.00
2019-01-26T00:16:39.859Z,93798.09
2019-01-26T00:19:09.280Z,93797.21
2019-01-26T00:21:38.734Z,93795.10
2019-01-26T00:24:08.239Z,93802.29
2019-01-26T00:26:37.673Z,93804.27
2019-01-26T00:29:07.111Z,93804.93
2019-01-26T00:31:36.469Z,93797.58
2019-01-26T00:34:06.047Z,93797.35
2019-01-26T00:36:35.472Z,93798.98
2019-01-26T00:39:07.983Z,93795.59
2019-01-26T00:41:37.344Z,93796.61
2019-01-26T00:44:06.698Z,93806.74
2019-01-26T00:46:36.069Z,93817.36
2019-01-26T00:49:05.561Z,93815.59
2019-01-26T00:51:34.928Z,93810.40
2019-01-26T00:54:04.291Z,93808.20
2019-01-26T00:56:33.592Z,93810.40
2019-01-26T00:59:03.073Z,93811.63
2019-01-26T01:01:32.568Z,93813.44
2019-01-26T01:04:02.014Z,93813.84
2019-01-26T01:06:31.613Z,93817.94
2019-01-26T01:09:01.000Z,93825.47
2019-01-26T01:11:30.333Z,93824.05
2019-01-26T01:13:59.722Z,93838.02
2019-01-26T01:16:35.696Z,93835.07
2019-01-26T01:19:00.235Z,93840.56
2019-01-26T01:21:29.760Z,93843.29
2019-01-26T01:23:59.167Z,93846.24
2019-01-26T01:26:28.745Z,93837.60
2019-01-26T01:28:58.223Z,93840.64
2019-01-26T01:31:27.530Z,93845.20
2019-01-26T01:33:56.850Z,93843.34
2019-01-26T01:36:26.252Z,93847.92
2019-01-26T01:38:55.629Z,93838.72
2019-01-26T01:41:25.113Z,93839.02
2019-01-26T01:43:54.918Z,93841.36
2019-01-26T01:46:24.414Z,93837.28
2019-01-26T01:48:54.115Z,93839.70
2019-01-26T01:51:23.442Z,93842.22
2019-01-26T01:53:52.751Z,93837.55
2019-01-26T01:56:22.068Z,93841.55
2019-01-26T01:58:51.477Z,93843.88
2019-01-26T02:01:20.890Z,93839.92
2019-01-26T02:03:50.296Z,93840.08
2019-01-26T02:06:19.670Z,93835.78
2019-01-26T02:08:49.044Z,93839.25
2019-01-26T02:11:18.447Z,93839.78
2019-01-26T02:13:49.181Z,93844.53
2019-01-26T02:16:18.597Z,93852.27
2019-01-26T02:18:47.982Z,93853.50
2019-01-26T02:21:18.064Z,93847.35
2019-01-26T02:23:47.515Z,93854.56
2019-01-26T02:26:16.880Z,93862.75
2019-01-26T02:28:46.241Z,93860.30
2019-01-26T02:31:15.566Z,93848.41
2019-01-26T02:33:44.895Z,93849.66
2019-01-26T02:36:14.240Z,93857.50
2019-01-26T02:38:43.570Z,93856.19
2019-01-26T02:41:12.938Z,93865.73
2019-01-26T02:43:42.364Z,93858.41
2019-01-26T02:46:11.721Z,93861.73
2019-01-26T02:48:41.070Z,93866.75
2019-01-26T02:51:10.438Z,93855.92
2019-01-26T02:53:39.821Z,93858.30
2019-01-26T02:56:09.192Z,93867.73
2019-01-26T02:58:38.602Z,93871.20
2019-01-26T03:01:07.962Z,93864.11
2019-01-26T03:03:38.409Z,93877.27
2019-01-26T03:06:07.858Z,93877.31
2019-01-26T03:08:37.243Z,93878.86
2019-01-26T03:11:06.771Z,93885.39
2019-01-26T03:13:36.157Z,93876.97
2019-01-26T03:16:05.777Z,93878.79
2019-01-26T03:18:35.256Z,93876.48
2019-01-26T03:21:04.785Z,93882.00
2019-01-26T03:23:34.215Z,93889.43
2019-01-26T03:26:03.797Z,93897.95
2019-01-26T03:28:33.271Z,93898.18
2019-01-26T03:31:02.897Z,93900.98
2019-01-26T03:33:32.217Z,93900.06
2019-01-26T03:36:01.546Z,93908.81
2019-01-26T03:38:30.859Z,93902.22
2019-01-26T03:41:00.255Z,93907.98
2019-01-26T03:43:29.676Z,93912.21
2019-01-26T03:45:59.026Z,93912.28
2019-01-26T03:48:28.350Z,93910.89
2019-01-26T03:50:57.705Z,93925.08
2019-01-26T03:53:27.044Z,93929.41
2019-01-26T03:55:56.718Z,93919.64
2019-01-26T03:58:26.073Z,93925.42
2019-01-26T04:00:55.410Z,93924.92
2019-01-26T04:03:24.826Z,93927.07
2019-01-26T04:05:54.331Z,93920.20
2019-01-26T04:08:23.829Z,93928.09
2019-01-26T04:10:53.229Z,93932.25
2019-01-26T04:13:22.625Z,93936.05
2019-01-26T04:15:51.922Z,93932.63
2019-01-26T04:18:21.370Z,93931.03
2019-01-26T04:20:50.682Z,93937.00
2019-01-26T04:23:20.091Z,93935.19
2019-01-26T04:25:49.656Z,93937.64
2019-01-26T04:28:19.089Z,93941.86
2019-01-26T04:30:48.422Z,93945.86
2019-01-26T04:33:17.807Z,93954.61
2019-01-26T04:35:47.190Z,93952.95
2019-01-26T04:38:16.654Z,93943.75
2019-01-26T04:40:46.017Z,93950.41
2019-01-26T04:43:15.349Z,93952.79
2019-01-26T04:45:44.666Z,93955.70
2019-01-26T04:48:14.082Z,93956.75
2019-01-26T04:50:43.487Z,93963.02
2019-01-26T04:53:13.040Z,93965.99
2019-01-26T04:55:42.407Z,93977.91
2019-01-26T04:58:11.874Z,93974.30
2019-01-26T05:00:41.204Z,93978.77
2019-01-26T05:03:10.611Z,93991.90
2019-01-26T05:05:40.061Z,93981.90
2019-01-26T05:08:09.393Z,93987.51
2019-01-26T05:10:38.728Z,93992.95
2019-01-26T05:13:08.119Z,94004.61
2019-01-26T05:15:37.464Z,93997.18
2019-01-26T05:18:06.895Z,94006.72
2019-01-26T05:20:36.217Z,94009.88
2019-01-26T05:23:05.593Z,94009.63
2019-01-26T05:25:35.037Z,94015.60
2019-01-26T05:28:04.694Z,94018.53
2019-01-26T05:30:34.221Z,94020.95
2019-01-26T05:33:03.560Z,94022.80
2019-01-26T05:35:32.881Z,94020.88
2019-01-26T05:38:02.435Z,94024.38
2019-01-26T05:40:31.833Z,94031.21
2019-01-26T05:43:01.174Z,94032.33
2019-01-26T05:45:30.746Z,94028.37
2019-01-26T05:48:00.392Z,94035.99
2019-01-26T05:50:29.788Z,94052.62
2019-01-26T05:52:59.229Z,94053.12
2019-01-26T05:55:28.690Z,94060.55
2019-01-26T05:57:58.068Z,94072.72
2019-01-26T06:00:30.942Z,94076.39
2019-01-26T06:03:00.276Z,94082.02
2019-01-26T06:05:29.576Z,94090.20
2019-01-26T06:07:59.253Z,94090.47
2019-01-26T06:10:28.641Z,94093.93
2019-01-26T06:12:58.914Z,94103.67
2019-01-26T06:15:29.196Z,94103.67
2019-01-26T06:17:58.530Z,94099.97
2019-01-26T06:20:27.913Z,94091.50
2019-01-26T06:22:57.265Z,94101.34
2019-01-26T06:25:26.621Z,94101.58
2019-01-26T06:27:56.047Z,94098.92
2019-01-26T06:30:26.575Z,94105.23
2019-01-26T06:32:56.595Z,94111.35
2019-01-26T06:35:25.958Z,94116.11
2019-01-26T06:37:55.478Z,94120.86
2019-01-26T06:40:24.804Z,94124.08
2019-01-26T06:42:54.250Z,94119.88
2019-01-26T06:45:23.746Z,94120.33
2019-01-26T06:47:53.106Z,94130.38
2019-01-26T06:50:26.384Z,94127.75
2019-01-26T06:52:55.768Z,94125.39
2019-01-26T06:55:25.176Z,94139.09
2019-01-26T06:57:54.621Z,94141.73
2019-01-26T07:00:28.079Z,94138.81
2019-01-26T07:02:57.416Z,94139.89
2019-01-26T07:05:44.232Z,94141.50
2019-01-26T07:08:18.520Z,94141.23
2019-01-26T07:10:47.806Z,94145.74
2019-01-26T07:13:17.118Z,94146.03
2019-01-26T07:15:46.584Z,94142.55
2019-01-26T07:18:16.014Z,94135.64
2019-01-26T07:20:45.350Z,94141.78
2019-01-26T07:23:14.714Z,94157.39
2019-01-26T07:25:44.107Z,94151.80
2019-01-26T07:28:13.458Z,94152.63
2019-01-26T07:30:42.809Z,94145.55
2019-01-26T07:33:12.275Z,94137.64
2019-01-26T07:35:41.977Z,94140.59
2019-01-26T07:38:13.642Z,94151.14
2019-01-26T07:40:42.400Z,94149.42
2019-01-26T07:43:11.720Z,94156.55
2019-01-26T07:45:41.098Z,94147.55
2019-01-26T07:48:16.764Z,94162.69
2019-01-26T07:50:41.992Z,94163.23
2019-01-26T07:53:11.324Z,94168.19
2019-01-26T07:55:40.642Z,94171.36
2019-01-26T07:58:09.996Z,94176.55
2019-01-26T08:00:39.384Z,94175.70
2019-01-26T08:03:08.715Z,94180.73
2019-01-26T08:05:38.076Z,94172.00
2019-01-26T08:08:07.416Z,94179.55
2019-01-26T08:10:36.812Z,94182.53
2019-01-26T08:13:06.663Z,94174.06
2019-01-26T08:15:37.769Z,94169.58
2019-01-26T08:18:08.701Z,94174.12
2019-01-26T08:20:38.058Z,94192.19
2019-01-26T08:23:07.478Z,94186.95
2019-01-26T08:25:36.857Z,94194.14
2019-01-26T08:28:06.328Z,94203.66
2019-01-26T08:30:35.674Z,94209.06
2019-01-26T08:33:05.017Z,94205.46
2019-01-26T08:35:34.389Z,94189.94
2019-01-26T08:38:03.820Z,94194.16
2019-01-26T08:40:33.156Z,94207.95
2019-01-26T08:43:04.125Z,94217.50
2019-01-26T08:45:33.477Z,94213.63
2019-01-26T08:48:02.844Z,94212.91
2019-01-26T08:50:32.170Z,94221.63
2019-01-26T08:53:01.510Z,94215.34
2019-01-26T08:55:30.843Z,94224.81
2019-01-26T08:58:00.212Z,94224.61
2019-01-26T09:00:29.724Z,94210.59
2019-01-26T09:03:17.978Z,94222.42
2019-01-26T09:06:05.024Z,94226.56
2019-01-26T09:08:34.347Z,94220.73
2019-01-26T09:11:03.804Z,94234.84
2019-01-26T09:13:33.133Z,94244.04
2019-01-26T09:16:02.483Z,94231.84
2019-01-26T09:18:38.555Z,94231.84
2019-01-26T09:21:02.885Z,94240.75
2019-01-26T09:23:32.208Z,94249.28
2019-01-26T09:26:01.560Z,94244.94
2019-01-26T09:28:30.961Z,94241.91
2019-01-26T09:31:00.300Z,94245.34
2019-01-26T09:33:29.644Z,94251.30
2019-01-26T09:35:58.950Z,94240.36
2019-01-26T09:38:28.268Z,94244.55
2019-01-26T09:40:57.672Z,94240.42
2019-01-26T09:43:27.089Z,94237.20
2019-01-26T09:45:56.494Z,94247.22
2019-01-26T09:48:25.820Z,94242.98
2019-01-26T09:50:55.588Z,94239.87
2019-01-26T09:53:24.978Z,94242.25
2019-01-26T09:55:54.276Z,94248.83
2019-01-26T09:58:23.681Z,94250.33
2019-01-26T10:00:53.117Z,94252.41
2019-01-26T10:03:22.525Z,94250.05
2019-01-26T10:05:51.871Z,94251.20
2019-01-26T10:08:21.239Z,94242.25
2019-01-26T10:10:50.591Z,94238.58
2019-01-26T10:13:20.002Z,94246.86
2019-01-26T10:15:50.457Z,94243.02
2019-01-26T10:18:19.821Z,94252.03
2019-01-26T10:20:49.601Z,94260.20
2019-01-26T10:23:18.926Z,94262.80
2019-01-26T10:25:48.976Z,94257.83
2019-01-26T10:28:18.362Z,94257.50
2019-01-26T10:30:57.972Z,94267.05
2019-01-26T10:33:27.320Z,94252.67
2019-01-26T10:36:18.840Z,94261.52
2019-01-26T10:39:11.547Z,94254.27
2019-01-26T10:41:59.826Z,94262.09
2019-01-26T10:44:33.201Z,94262.58
2019-01-26T10:47:02.682Z,94258.76
2019-01-26T10:49:32.016Z,94251.51
2019-01-26T10:52:01.396Z,94258.35
2019-01-26T10:54:30.778Z,94263.34
2019-01-26T10:57:00.145Z,94266.55
2019-01-26T10:59:29.588Z,94264.58
2019-01-26T11:01:58.927Z,94264.70
2019-01-26T11:04:28.252Z,94254.33
2019-01-26T11:06:57.670Z,94264.88
2019-01-26T11:09:27.094Z,94258.33
2019-01-26T11:11:56.434Z,94255.85
2019-01-26T11:14:25.887Z,94252.56
2019-01-26T11:16:55.263Z,94252.13
2019-01-26T11:19:24.711Z,94250.03
2019-01-26T11:21:54.064Z,94251.80
2019-01-26T11:24:23.432Z,94240.87
2019-01-26T11:26:52.845Z,94235.52
2019-01-26T11:29:22.194Z,94241.37
2019-01-26T11:31:51.861Z,94235.02
2019-01-26T11:34:21.253Z,94242.40
2019-01-26T11:36:51.497Z,94242.27
2019-01-26T11:39:20.814Z,94251.37
2019-01-26T11:41:50.187Z,94251.73
2019-01-26T11:44:19.705Z,94245.94
2019-01-26T11:47:19.989Z,94250.97
2019-01-26T11:49:57.035Z,94251.59
2019-01-26T11:52:26.385Z,94260.98
2019-01-26T11:55:14.753Z,94256.26
2019-01-26T11:57:44.194Z,94258.61
2019-01-26T12:00:45.358Z,94253.20
2019-01-26T12:03:33.590Z,94257.33
2019-01-26T12:06:13.315Z,94266.08
2019-01-26T12:08:42.690Z,94265.23
2019-01-26T12:11:12.066Z,94251.04
2019-01-26T12:13:41.401Z,94262.05
2019-01-26T12:16:10.758Z,94260.47
2019-01-26T12:18:40.141Z,94262.02
2019-01-26T12:21:09.553Z,94253.50
2019-01-26T12:23:38.956Z,94259.44
2019-01-26T12:26:09.665Z,94269.34
2019-01-26T12:28:39.027Z,94267.53
2019-01-26T12:31:08.466Z,94265.55
2019-01-26T12:33:38.180Z,94271.34
2019-01-26T12:36:07.543Z,94272.36
2019-01-26T12:38:38.898Z,94265.78
2019-01-26T12:41:08.353Z,94265.28
2019-01-26T12:43:37.735Z,94262.84
2019-01-26T12:46:07.129Z,94260.94
2019-01-26T12:48:36.582Z,94271.13
2019-01-26T12:51:06.051Z,94266.11
2019-01-26T12:53:35.476Z,94264.25
2019-01-26T12:56:05.929Z,94272.22
2019-01-26T12:58:35.316Z,94278.10
2019-01-26T13:01:05.480Z,94275.19
2019-01-26T13:03:34.858Z,94260.11
2019-01-26T13:06:04.191Z,94270.72
2019-01-26T13:08:33.541Z,94281.06
2019-01-26T13:11:08.029Z,94274.87
2019-01-26T13:13:37.398Z,94278.77
2019-01-26T13:16:07.108Z,94279.27
2019-01-26T13:18:36.444Z,94296.59
2019-01-26T13:21:07.387Z,94294.59
2019-01-26T13:23:38.537Z,94293.97
2019-01-26T13:26:08.648Z,94291.56
2019-01-26T13:28:38.329Z,94299.08
2019-01-26T13:31:07.888Z,94295.17
2019-01-26T13:33:37.848Z,94295.84
2019-01-26T13:36:08.561Z,94305.61
2019-01-26T13:38:38.323Z,94300.87
2019-01-26T13:41:07.854Z,94308.31
2019-01-26T13:43:37.621Z,94314.07
2019-01-26T13:46:08.050Z,94312.34
2019-01-26T13:48:37.463Z,94315.63
2019-01-26T13:51:12.926Z,94319.51
2019-01-26T13:53:39.432Z,94318.13
2019-01-26T13:56:08.842Z,94322.19
2019-01-26T13:58:38.286Z,94330.97
2019-01-26T14:01:07.659Z,94323.59
2019-01-26T14:03:37.011Z,94321.59
2019-01-26T14:06:06.764Z,94324.31
2019-01-26T14:08:37.826Z,94325.48
2019-01-26T14:11:07.296Z,94322.33
2019-01-26T14:13:36.608Z,94331.41
2019-01-26T14:16:06.224Z,94329.03
2019-01-26T14:18:35.559Z,94335.23
2019-01-26T14:21:04.876Z,94336.29
2019-01-26T14:23:34.239Z,94340.06
2019-01-26T14:26:03.664Z,94340.80
2019-01-26T14:28:33.306Z,94334.61
2019-01-26T14:31:06.464Z,94337.13
2019-01-26T14:33:35.912Z,94341.17
2019-01-26T14:36:05.321Z,94349.84
2019-01-26T14:38:34.760Z,94343.23
2019-01-26T14:41:04.268Z,94350.36
2019-01-26T14:43:33.635Z,94345.05
2019-01-26T14:46:02.928Z,94346.16
2019-01-26T14:48:32.265Z,94354.98
2019-01-26T14:51:01.618Z,94363.27
2019-01-26T14:53:31.341Z,94363.80
2019-01-26T14:56:00.738Z,94364.94
2019-01-26T14:58:30.491Z,94361.77
2019-01-26T15:00:59.801Z,94356.61
2019-01-26T15:03:29.155Z,94366.88
2019-01-26T15:05:58.473Z,94365.56
2019-01-26T15:08:27.819Z,94372.53
2019-01-26T15:10:57.157Z,94366.22
2019-01-26T15:13:26.526Z,94373.88
2019-01-26T15:15:55.836Z,94374.68
2019-01-26T15:18:25.162Z,94371.52
2019-01-26T15:20:54.764Z,94372.58
2019-01-26T15:23:24.104Z,94387.62
2019-01-26T15:25:53.432Z,94394.48
2019-01-26T15:28:22.754Z,94402.14
2019-01-26T15:30:52.120Z,94399.28
2019-01-26T15:33:21.458Z,94400.89
2019-01-26T15:35:50.817Z,94404.06
2019-01-26T15:38:20.241Z,94408.55
2019-01-26T15:40:49.610Z,94412.78
2019-01-26T15:43:18.952Z,94420.91
2019-01-26T15:45:49.967Z,94422.21
2019-01-26T15:48:19.291Z,94418.79
2019-01-26T15:50:48.637Z,94413.76
2019-01-26T15:53:18.102Z,94419.87
2019-01-26T15:55:47.451Z,94418.08
2019-01-26T15:58:16.812Z,94428.88
2019-01-26T16:00:46.813Z,94431.80
2019-01-26T16:03:16.262Z,94433.89
2019-01-26T16:05:45.613Z,94428.34
2019-01-26T16:08:15.315Z,94427.55
2019-01-26T16:10:44.654Z,94436.80
2019-01-26T16:13:14.271Z,94437.88
2019-01-26T16:15:43.702Z,94443.69
2019-01-26T16:18:16.525Z,94442.36
2019-01-26T16:20:45.883Z,94439.22
2019-01-26T16:23:18.273Z,94454.01
2019-01-26T16:25:47.637Z,94452.41
2019-01-26T16:28:17.229Z,94457.17
2019-01-26T16:30:46.610Z,94458.48
2019-01-26T16:33:17.999Z,94462.47
2019-01-26T16:35:47.369Z,94469.86
2019-01-26T16:38:16.968Z,94472.20
2019-01-26T16:40:46.330Z,94480.39
2019-01-26T16:43:15.626Z,94475.11
2019-01-26T16:45:44.933Z,94484.08
2019-01-26T16:48:15.479Z,94482.23
2019-01-26T16:50:44.812Z,94487.80
2019-01-26T16:53:14.279Z,94480.13
2019-01-26T16:55:44.725Z,94482.77
2019-01-26T16:58:14.489Z,94481.16
2019-01-26T17:00:55.308Z,94482.23
2019-01-26T17:03:24.623Z,94473.52
2019-01-26T17:05:53.973Z,94479.59
2019-01-26T17:08:23.455Z,94474.31
2019-01-26T17:10:53.629Z,94482.98
2019-01-26T17:13:23.089Z,94485.38
2019-01-26T17:15:52.394Z,94486.16
2019-01-26T17:18:21.902Z,94490.09
2019-01-26T17:20:51.495Z,94488.53
2019-01-26T17:23:20.950Z,94487.22
2019-01-26T17:25:50.315Z,94486.42
2019-01-26T17:28:19.627Z,94488.53
2019-01-26T17:30:48.975Z,94502.02
2019-01-26T17:33:18.375Z,94498.35
2019-01-26T17:35:47.783Z,94503.08
2019-01-26T17:38:17.176Z,94510.98
2019-01-26T17:40:54.358Z,94512.58
2019-01-26T17:43:17.902Z,94514.42
2019-01-26T17:45:47.281Z,94517.62
2019-01-26T17:48:16.699Z,94519.98
2019-01-26T17:50:46.461Z,94522.34
2019-01-26T17:53:15.927Z,94521.30
2019-01-26T17:55:45.322Z,94520.77
2019-01-26T17:58:14.657Z,94527.38
2019-01-26T18:00:56.663Z,94317.79
2019-01-26T18:03:26.095Z,94522.63
2019-01-26T18:05:55.520Z,94526.86
2019-01-26T18:08:24.871Z,94530.54
2019-01-26T18:10:54.562Z,94526.06
2019-01-26T18:13:23.938Z,94530.30
2019-01-26T18:15:53.322Z,94532.38
2019-01-26T18:18:22.704Z,94534.50
2019-01-26T18:20:52.026Z,94538.73
2019-01-26T18:23:26.372Z,94532.94
2019-01-26T18:25:55.956Z,94528.19
2019-01-26T18:28:25.356Z,94525.03
2019-01-26T18:30:54.684Z,94527.67
2019-01-26T18:33:24.027Z,94526.63
2019-01-26T18:35:53.356Z,94532.42
2019-01-26T18:38:22.679Z,94527.94
2019-01-26T18:40:52.106Z,94524.23
2019-01-26T18:43:21.444Z,94525.83
2019-01-26T18:45:50.757Z,94527.14
2019-01-26T18:48:20.112Z,94517.12
2019-01-26T18:50:56.078Z,94522.67
2019-01-26T18:53:23.246Z,94511.33
2019-01-26T18:55:52.596Z,94507.66
2019-01-26T18:58:22.043Z,94506.30
2019-01-26T19:00:52.475Z,94511.05
2019-01-26T19:03:52.036Z,94508.69
2019-01-26T19:06:21.344Z,94513.69
2019-01-26T19:08:50.692Z,94507.88
2019-01-26T19:11:27.376Z,94509.20
2019-01-26T19:14:13.681Z,94505.49
2019-01-26T19:16:43.443Z,94502.06
2019-01-26T19:19:15.909Z,94501.81
2019-01-26T19:24:37.074Z,94500.21
2019-01-26T19:27:07.509Z,94497.58
2019-01-26T19:29:37.444Z,94496.77
2019-01-26T19:32:09.393Z,94498.87
2019-01-26T19:34:46.300Z,94490.67
2019-01-26T19:37:18.109Z,94497.27
2019-01-26T19:39:47.501Z,94491.76
2019-01-26T19:42:18.881Z,94485.94
2019-01-26T19:44:48.508Z,94490.16
2019-01-26T19:47:17.943Z,94487.25
2019-01-26T19:49:47.279Z,94480.41
2019-01-26T19:52:16.703Z,94479.89
2019-01-26T19:54:46.096Z,94483.86
2019-01-26T19:57:15.387Z,94478.83
2019-01-26T19:59:46.509Z,94475.15
2019-01-26T20:02:23.759Z,94476.20
2019-01-26T20:04:53.941Z,94478.59
2019-01-26T20:07:23.395Z,94479.63
2019-01-26T20:09:52.734Z,94476.48
2019-01-26T20:12:22.068Z,94477.51
2019-01-26T20:14:54.586Z,94475.95
2019-01-26T20:17:38.335Z,94472.24
2019-01-26T20:20:10.441Z,94478.60
2019-01-26T20:22:39.762Z,94473.61
2019-01-26T20:25:09.408Z,94478.60
2019-01-26T20:27:38.774Z,94472.80
2019-01-26T20:30:11.183Z,94462.78
2019-01-26T20:32:40.507Z,94468.86
2019-01-26T20:35:09.844Z,94461.23
2019-01-26T20:37:39.388Z,94469.91
2019-01-26T20:40:11.076Z,94468.07
2019-01-26T20:42:40.423Z,94466.23
2019-01-26T20:45:12.534Z,94459.92
2019-01-26T20:47:41.895Z,94472.59
2019-01-26T20:50:12.761Z,94470.20
2019-01-26T20:52:42.101Z,94469.68
2019-01-26T20:55:11.810Z,94477.59
2019-01-26T20:57:41.243Z,94487.36
2019-01-26T21:00:14.476Z,94486.81
2019-01-26T21:02:43.831Z,94484.45
2019-01-26T21:05:13.177Z,94503.94
2019-01-26T21:07:42.909Z,94490.80
2019-01-26T21:10:16.017Z,94492.63
2019-01-26T21:12:45.353Z,94501.33
2019-01-26T21:15:14.789Z,94499.73
2019-01-26T21:17:44.127Z,94496.86
2019-01-26T21:20:14.644Z,94500.81
2019-01-26T21:22:44.003Z,94495.54
2019-01-26T21:25:13.479Z,94491.83
2019-01-26T21:27:42.844Z,94490.27
2019-01-26T21:30:17.999Z,94491.83
2019-01-26T21:32:47.523Z,94497.63
2019-01-26T21:35:16.874Z,94508.69
2019-01-26T21:37:46.253Z,94496.31
2019-01-26T21:40:18.704Z,94506.33
2019-01-26T21:42:48.142Z,94502.38
2019-01-26T21:45:17.936Z,94507.38
2019-01-26T21:47:47.313Z,94510.53
2019-01-26T21:50:19.158Z,94510.56
2019-01-26T21:52:48.600Z,94510.53
2019-01-26T21:55:18.012Z,94515.56
2019-01-26T21:57:47.424Z,94523.19
2019-01-26T22:00:19.403Z,94516.88
2019-01-26T22:02:48.775Z,94513.95
2019-01-26T22:05:18.140Z,94516.08
2019-01-26T22:07:47.612Z,94513.96
2019-01-26T22:10:18.286Z,94516.88
2019-01-26T22:12:47.633Z,94520.83
2019-01-26T22:15:19.012Z,94524.78
2019-01-26T22:17:48.338Z,94514.76
2019-01-26T22:20:25.593Z,94515.28
2019-01-26T22:22:55.054Z,94513.69
2019-01-26T22:25:24.525Z,94511.33
2019-01-26T22:27:55.571Z,94514.24
2019-01-26T22:30:27.133Z,94516.60
2019-01-26T22:32:56.586Z,94521.87
2019-01-26T22:35:25.908Z,94514.21
2019-01-26T22:37:55.431Z,94523.98
2019-01-26T22:40:29.752Z,94522.39
2019-01-26T22:42:59.105Z,94527.94
2019-01-26T22:45:28.685Z,94528.98
2019-01-26T22:47:58.065Z,94533.22
2019-01-26T22:50:27.579Z,94540.05
2019-01-26T22:52:56.911Z,94535.30
2019-01-26T22:55:26.207Z,94531.09
2019-01-26T22:57:55.799Z,94532.42
2019-01-26T23:00:59.741Z,94531.34
2019-01-26T23:03:36.946Z,94534.78
2019-01-26T23:06:26.564Z,94536.62
2019-01-26T23:08:56.271Z,94529.51
2019-01-26T23:11:42.168Z,94535.05
2019-01-26T23:14:33.830Z,94539.53
2019-01-26T23:17:54.349Z,94558.23
2019-01-26T23:20:31.143Z,94567.22
2019-01-26T23:23:29.088Z,94563.78
2019-01-26T23:26:33.021Z,94563.51
2019-01-26T23:29:52.549Z,94574.85
2019-01-26T23:32:21.943Z,94565.09
2019-01-26T23:34:51.316Z,94561.66
2019-01-26T23:37:20.655Z,94563.78
2019-01-26T23:39:49.973Z,94569.85
2019-01-26T23:42:19.718Z,94562.98
2019-01-26T23:44:49.062Z,94551.36
2019-01-26T23:47:18.402Z,94551.08
2019-01-26T23:49:47.751Z,94552.94
2019-01-26T23:52:17.195Z,94558.21
2019-01-26T23:54:46.547Z,94550.26
2019-01-26T23:57:15.878Z,94557.41
2019-01-26T23:59:45.196Z,94550.30
